SAS221 ENGM-ENCN
Flight info
| Callsign | SAS221 |
|---|---|
| Flight time | 0h 30m |
| Altitude | 26000 |
| Route | VIPPA DCT OSVAL |
| Aircraft | A319/M-SDE3FGHIRWY/LB1 |
Departure
| Time | 2026-05-07 14:25 |
|---|---|
| Airport | Oslo-Gardermoen International Airport (ENGM) |
Arrival
| Time | 2026-05-07 14:56 |
|---|---|
| Airport | Kristiansand Airport (ENCN) |
| Time | Latitude | Longitude | Altitude | Speed | Heading |
|---|---|---|---|---|---|
| 2026-05-07 13:53 | 60.19527 | 11.09652 | 685 ft | 0 kts | 195° |
| 2026-05-07 14:16 | 60.19531 | 11.09654 | 685 ft | 2 kts | 195° |
| 2026-05-07 14:16 | 60.19549 | 11.09664 | 677 ft | 3 kts | 195° |
| 2026-05-07 14:16 | 60.19569 | 11.09675 | 680 ft | 3 kts | 195° |
| 2026-05-07 14:17 | 60.19579 | 11.09681 | 683 ft | 0 kts | 195° |
| 2026-05-07 14:20 | 60.19576 | 11.09678 | 682 ft | 2 kts | 201° |
| 2026-05-07 14:20 | 60.19579 | 11.09664 | 683 ft | 2 kts | 295° |
| 2026-05-07 14:20 | 60.19602 | 11.09586 | 684 ft | 11 kts | 301° |
| 2026-05-07 14:21 | 60.19648 | 11.09429 | 683 ft | 15 kts | 300° |
| 2026-05-07 14:21 | 60.19699 | 11.09216 | 682 ft | 19 kts | 291° |
| 2026-05-07 14:21 | 60.19745 | 11.08951 | 682 ft | 21 kts | 286° |
| 2026-05-07 14:21 | 60.19781 | 11.08722 | 678 ft | 13 kts | 303° |
| 2026-05-07 14:22 | 60.19867 | 11.08721 | 678 ft | 14 kts | 18° |
| 2026-05-07 14:22 | 60.19969 | 11.08784 | 676 ft | 16 kts | 15° |
| 2026-05-07 14:22 | 60.20046 | 11.08829 | 680 ft | 18 kts | 16° |
| 2026-05-07 14:22 | 60.20173 | 11.08903 | 681 ft | 20 kts | 16° |
| 2026-05-07 14:23 | 60.20316 | 11.08986 | 682 ft | 23 kts | 16° |
| 2026-05-07 14:23 | 60.20475 | 11.09076 | 682 ft | 25 kts | 16° |
| 2026-05-07 14:23 | 60.20590 | 11.09142 | 683 ft | 13 kts | 11° |
| 2026-05-07 14:23 | 60.20654 | 11.09014 | 682 ft | 16 kts | 286° |
| 2026-05-07 14:24 | 60.20688 | 11.08770 | 678 ft | 15 kts | 286° |
| 2026-05-07 14:24 | 60.20702 | 11.08637 | 679 ft | 3 kts | 249° |
| 2026-05-07 14:24 | 60.20682 | 11.08632 | 677 ft | 4 kts | 191° |
| 2026-05-07 14:24 | 60.20641 | 11.08610 | 679 ft | 8 kts | 196° |
| 2026-05-07 14:25 | 60.20539 | 11.08552 | 678 ft | 37 kts | 196° |
| 2026-05-07 14:25 | 60.20086 | 11.08289 | 676 ft | 98 kts | 196° |
| 2026-05-07 14:25 | 60.19244 | 11.07801 | 690 ft | 151 kts | 196° |
| 2026-05-07 14:25 | 60.18231 | 11.07211 | 1350 ft | 148 kts | 201° |
| 2026-05-07 14:26 | 60.17342 | 11.06180 | 2066 ft | 150 kts | 220° |
| 2026-05-07 14:26 | 60.16625 | 11.04630 | 2776 ft | 153 kts | 238° |
| 2026-05-07 14:26 | 60.16120 | 11.02652 | 3313 ft | 170 kts | 244° |
| 2026-05-07 14:26 | 60.15546 | 11.00381 | 3731 ft | 196 kts | 243° |
| 2026-05-07 14:27 | 60.14884 | 10.97786 | 4303 ft | 221 kts | 244° |
| 2026-05-07 14:27 | 60.14166 | 10.94870 | 4929 ft | 246 kts | 244° |
| 2026-05-07 14:27 | 60.13388 | 10.91674 | 5781 ft | 261 kts | 244° |
| 2026-05-07 14:27 | 60.12587 | 10.88368 | 6861 ft | 266 kts | 245° |
| 2026-05-07 14:28 | 60.11735 | 10.85046 | 7955 ft | 271 kts | 237° |
| 2026-05-07 14:28 | 60.10378 | 10.82405 | 9034 ft | 278 kts | 213° |
| 2026-05-07 14:28 | 60.08553 | 10.81023 | 10113 ft | 283 kts | 197° |
| 2026-05-07 14:28 | 60.06618 | 10.79990 | 10701 ft | 303 kts | 197° |
| 2026-05-07 14:29 | 60.04479 | 10.78871 | 11241 ft | 321 kts | 197° |
| 2026-05-07 14:29 | 60.02293 | 10.77739 | 12091 ft | 327 kts | 197° |
| 2026-05-07 14:29 | 60.00079 | 10.76600 | 13036 ft | 331 kts | 197° |
| 2026-05-07 14:29 | 59.97854 | 10.75344 | 13929 ft | 333 kts | 204° |
| 2026-05-07 14:30 | 59.95839 | 10.73212 | 14694 ft | 333 kts | 214° |
| 2026-05-07 14:30 | 59.93837 | 10.70844 | 15510 ft | 336 kts | 214° |
| 2026-05-07 14:30 | 59.91824 | 10.68446 | 16312 ft | 339 kts | 215° |
| 2026-05-07 14:30 | 59.89784 | 10.66017 | 17113 ft | 342 kts | 215° |
| 2026-05-07 14:31 | 59.87734 | 10.63579 | 17904 ft | 345 kts | 215° |
| 2026-05-07 14:31 | 59.85657 | 10.61117 | 18635 ft | 349 kts | 216° |
| 2026-05-07 14:31 | 59.83561 | 10.58638 | 19303 ft | 352 kts | 216° |
| 2026-05-07 14:31 | 59.81444 | 10.56137 | 19973 ft | 356 kts | 216° |
| 2026-05-07 14:32 | 59.79304 | 10.53613 | 20642 ft | 359 kts | 216° |
| 2026-05-07 14:32 | 59.77146 | 10.51068 | 21301 ft | 363 kts | 216° |
| 2026-05-07 14:32 | 59.74966 | 10.48508 | 21944 ft | 366 kts | 216° |
| 2026-05-07 14:32 | 59.72763 | 10.45926 | 22573 ft | 370 kts | 216° |
| 2026-05-07 14:33 | 59.70535 | 10.43320 | 23209 ft | 373 kts | 216° |
| 2026-05-07 14:33 | 59.68289 | 10.40696 | 23807 ft | 377 kts | 217° |
| 2026-05-07 14:33 | 59.66021 | 10.38048 | 24318 ft | 380 kts | 217° |
| 2026-05-07 14:33 | 59.63737 | 10.35384 | 24815 ft | 383 kts | 217° |
| 2026-05-07 14:34 | 59.61436 | 10.32704 | 25333 ft | 385 kts | 217° |
| 2026-05-07 14:34 | 59.59119 | 10.30010 | 25832 ft | 388 kts | 217° |
| 2026-05-07 14:34 | 59.56781 | 10.27305 | 26039 ft | 389 kts | 217° |
| 2026-05-07 14:34 | 59.54505 | 10.24683 | 26084 ft | 376 kts | 217° |
| 2026-05-07 14:35 | 59.52272 | 10.22119 | 26091 ft | 368 kts | 217° |
| 2026-05-07 14:35 | 59.50069 | 10.19582 | 26088 ft | 366 kts | 217° |
| 2026-05-07 14:35 | 59.47878 | 10.17056 | 26090 ft | 365 kts | 217° |
| 2026-05-07 14:35 | 59.45690 | 10.14531 | 26092 ft | 364 kts | 217° |
| 2026-05-07 14:36 | 59.43506 | 10.12008 | 26091 ft | 365 kts | 217° |
| 2026-05-07 14:36 | 59.41312 | 10.09490 | 26093 ft | 365 kts | 217° |
| 2026-05-07 14:36 | 59.39120 | 10.06980 | 26094 ft | 365 kts | 217° |
| 2026-05-07 14:36 | 59.36926 | 10.04473 | 26097 ft | 365 kts | 217° |
| 2026-05-07 14:37 | 59.34732 | 10.01967 | 26093 ft | 365 kts | 217° |
| 2026-05-07 14:37 | 59.30344 | 9.96970 | 26095 ft | 365 kts | 216° |
| 2026-05-07 14:37 | 59.28150 | 9.94474 | 26095 ft | 365 kts | 216° |
| 2026-05-07 14:38 | 59.25955 | 9.91983 | 26090 ft | 365 kts | 216° |
| 2026-05-07 14:38 | 59.23757 | 9.89492 | 26088 ft | 365 kts | 216° |
| 2026-05-07 14:38 | 59.21565 | 9.87005 | 26089 ft | 365 kts | 216° |
| 2026-05-07 14:38 | 59.19364 | 9.84517 | 26086 ft | 365 kts | 216° |
| 2026-05-07 14:39 | 59.17160 | 9.82037 | 26087 ft | 366 kts | 216° |
| 2026-05-07 14:39 | 59.14955 | 9.79559 | 26087 ft | 366 kts | 216° |
| 2026-05-07 14:39 | 59.12754 | 9.77087 | 26093 ft | 366 kts | 216° |
| 2026-05-07 14:39 | 59.10548 | 9.74612 | 26092 ft | 366 kts | 216° |
| 2026-05-07 14:40 | 59.08314 | 9.72097 | 25745 ft | 375 kts | 216° |
| 2026-05-07 14:40 | 59.06050 | 9.69548 | 25222 ft | 375 kts | 216° |
| 2026-05-07 14:40 | 59.03799 | 9.67029 | 24824 ft | 371 kts | 215° |
| 2026-05-07 14:40 | 59.01571 | 9.64545 | 24416 ft | 368 kts | 215° |
| 2026-05-07 14:41 | 58.99360 | 9.62089 | 24008 ft | 364 kts | 215° |
| 2026-05-07 14:41 | 58.97290 | 9.59310 | 23112 ft | 361 kts | 228° |
| 2026-05-07 14:41 | 58.95629 | 9.55805 | 22083 ft | 358 kts | 232° |
| 2026-05-07 14:41 | 58.93985 | 9.52191 | 21079 ft | 356 kts | 232° |
| 2026-05-07 14:42 | 58.92348 | 9.48584 | 20263 ft | 357 kts | 232° |
| 2026-05-07 14:42 | 58.90713 | 9.44994 | 19760 ft | 353 kts | 232° |
| 2026-05-07 14:42 | 58.89095 | 9.41457 | 19305 ft | 348 kts | 231° |
| 2026-05-07 14:42 | 58.87505 | 9.37980 | 18851 ft | 343 kts | 231° |
| 2026-05-07 14:43 | 58.85932 | 9.34551 | 18400 ft | 338 kts | 231° |
| 2026-05-07 14:43 | 58.84382 | 9.31170 | 17913 ft | 333 kts | 231° |
| 2026-05-07 14:43 | 58.82857 | 9.27849 | 17479 ft | 328 kts | 231° |
| 2026-05-07 14:43 | 58.81357 | 9.24592 | 17049 ft | 322 kts | 231° |
| 2026-05-07 14:44 | 58.79875 | 9.21387 | 16630 ft | 317 kts | 231° |
| 2026-05-07 14:44 | 58.78416 | 9.18232 | 16210 ft | 313 kts | 231° |
| 2026-05-07 14:44 | 58.76975 | 9.15109 | 15797 ft | 310 kts | 231° |
| 2026-05-07 14:44 | 58.75549 | 9.12027 | 15378 ft | 306 kts | 231° |
| 2026-05-07 14:45 | 58.74136 | 9.08989 | 14980 ft | 304 kts | 230° |
| 2026-05-07 14:45 | 58.72730 | 9.05974 | 14574 ft | 301 kts | 230° |
| 2026-05-07 14:45 | 58.71339 | 9.02984 | 14174 ft | 299 kts | 231° |
| 2026-05-07 14:45 | 58.69957 | 9.00006 | 13766 ft | 297 kts | 230° |
| 2026-05-07 14:46 | 58.68587 | 8.97057 | 13342 ft | 294 kts | 230° |
| 2026-05-07 14:46 | 58.67230 | 8.94150 | 12952 ft | 291 kts | 230° |
| 2026-05-07 14:46 | 58.65878 | 8.91267 | 12563 ft | 289 kts | 230° |
| 2026-05-07 14:46 | 58.64536 | 8.88411 | 12181 ft | 287 kts | 230° |
| 2026-05-07 14:47 | 58.63205 | 8.85577 | 11801 ft | 285 kts | 230° |
| 2026-05-07 14:47 | 58.61881 | 8.82758 | 11420 ft | 283 kts | 230° |
| 2026-05-07 14:47 | 58.60568 | 8.79962 | 11042 ft | 281 kts | 230° |
| 2026-05-07 14:47 | 58.59263 | 8.77180 | 10668 ft | 280 kts | 229° |
| 2026-05-07 14:48 | 58.57964 | 8.74409 | 10325 ft | 278 kts | 229° |
| 2026-05-07 14:48 | 58.56679 | 8.71674 | 10250 ft | 276 kts | 229° |
| 2026-05-07 14:48 | 58.55388 | 8.68939 | 10140 ft | 276 kts | 229° |
| 2026-05-07 14:48 | 58.54112 | 8.66244 | 9773 ft | 280 kts | 229° |
| 2026-05-07 14:49 | 58.52807 | 8.63487 | 9393 ft | 278 kts | 229° |
| 2026-05-07 14:49 | 58.51545 | 8.60823 | 9041 ft | 275 kts | 229° |
| 2026-05-07 14:49 | 58.50260 | 8.58112 | 8639 ft | 275 kts | 229° |
| 2026-05-07 14:49 | 58.48978 | 8.55411 | 8229 ft | 274 kts | 229° |
| 2026-05-07 14:50 | 58.47698 | 8.52719 | 7855 ft | 273 kts | 229° |
| 2026-05-07 14:50 | 58.46421 | 8.50034 | 7478 ft | 273 kts | 229° |
| 2026-05-07 14:50 | 58.45140 | 8.47349 | 6952 ft | 277 kts | 228° |
| 2026-05-07 14:50 | 58.43815 | 8.44577 | 6179 ft | 289 kts | 228° |
| 2026-05-07 14:51 | 58.42449 | 8.41723 | 5375 ft | 292 kts | 228° |
| 2026-05-07 14:51 | 58.41092 | 8.38898 | 4782 ft | 284 kts | 227° |
| 2026-05-07 14:51 | 58.39786 | 8.36176 | 4625 ft | 271 kts | 227° |
| 2026-05-07 14:51 | 58.38541 | 8.33582 | 4539 ft | 259 kts | 227° |
| 2026-05-07 14:52 | 58.37299 | 8.31197 | 4459 ft | 248 kts | 220° |
| 2026-05-07 14:52 | 58.35950 | 8.29226 | 4266 ft | 242 kts | 215° |
| 2026-05-07 14:52 | 58.34570 | 8.27396 | 3937 ft | 242 kts | 214° |
| 2026-05-07 14:52 | 58.33182 | 8.25551 | 3541 ft | 244 kts | 214° |
| 2026-05-07 14:53 | 58.31810 | 8.23716 | 3152 ft | 239 kts | 214° |
| 2026-05-07 14:53 | 58.30478 | 8.21933 | 2778 ft | 228 kts | 214° |
| 2026-05-07 14:53 | 58.29236 | 8.20272 | 2432 ft | 211 kts | 214° |
| 2026-05-07 14:53 | 58.28066 | 8.18711 | 2099 ft | 201 kts | 214° |
| 2026-05-07 14:54 | 58.26964 | 8.17241 | 1803 ft | 188 kts | 213° |
| 2026-05-07 14:54 | 58.25940 | 8.15876 | 1496 ft | 171 kts | 213° |
| 2026-05-07 14:54 | 58.25021 | 8.14652 | 1303 ft | 147 kts | 213° |
| 2026-05-07 14:54 | 58.24241 | 8.13592 | 1035 ft | 131 kts | 213° |
| 2026-05-07 14:55 | 58.23526 | 8.12604 | 709 ft | 123 kts | 214° |
| 2026-05-07 14:55 | 58.22833 | 8.11725 | 560 ft | 117 kts | 214° |
| 2026-05-07 14:55 | 58.22161 | 8.10840 | 393 ft | 117 kts | 214° |
| 2026-05-07 14:55 | 58.21498 | 8.09957 | 216 ft | 115 kts | 214° |
| 2026-05-07 14:56 | 58.20843 | 8.09095 | 61 ft | 110 kts | 214° |
| 2026-05-07 14:56 | 58.20312 | 8.08392 | 61 ft | 76 kts | 215° |
| 2026-05-07 14:56 | 58.19996 | 8.07973 | 56 ft | 44 kts | 215° |
| 2026-05-07 14:56 | 58.19810 | 8.07727 | 57 ft | 23 kts | 215° |
| 2026-05-07 14:57 | 58.19704 | 8.07573 | 57 ft | 13 kts | 238° |
| 2026-05-07 14:57 | 58.19746 | 8.07478 | 59 ft | 12 kts | 341° |
| 2026-05-07 14:57 | 58.19838 | 8.07420 | 57 ft | 16 kts | 341° |
| 2026-05-07 14:57 | 58.19925 | 8.07366 | 55 ft | 11 kts | 343° |
| 2026-05-07 14:58 | 58.20009 | 8.07388 | 52 ft | 14 kts | 34° |
| 2026-05-07 14:58 | 58.20102 | 8.07498 | 56 ft | 17 kts | 31° |
| 2026-05-07 14:58 | 58.20184 | 8.07594 | 55 ft | 11 kts | 32° |
| 2026-05-07 14:58 | 58.20215 | 8.07630 | 56 ft | 2 kts | 29° |
| 2026-05-07 14:59 | 58.20229 | 8.07617 | 56 ft | 3 kts | 310° |
| 2026-05-07 14:59 | 58.20240 | 8.07576 | 56 ft | 3 kts | 303° |
| 2026-05-07 14:59 | 58.20246 | 8.07556 | 58 ft | 0 kts | 301° |